Time;durP1;ratioP1;P1;durP2;ratioP2;P2;SDS_P1;SDS_P2;PMS_P1;PMS_P2;Temp;Humidity;BMP_temperature;BMP_pressure;BME280_temperature;BME280_humidity;BME280_pressure;Samples;Min_cycle;Max_cycle;Signal;HPM_P1;HPM_P2
2022/06/17 00:00:56;;;;;;;6.97;3.45;;;17.20;58.80;;;;;;2329464;57;21042;-72
2022/06/17 00:03:25;;;;;;;5.35;3.20;;;17.20;58.70;;;;;;2330353;57;22123;-74
2022/06/17 00:05:55;;;;;;;6.45;3.87;;;17.20;58.70;;;;;;2328969;57;21047;-75
2022/06/17 00:08:26;;;;;;;5.72;3.90;;;17.10;58.80;;;;;;2572779;53;21055;-74
2022/06/17 00:10:54;;;;;;;7.00;4.22;;;17.10;58.90;;;;;;2329667;57;21058;-74
2022/06/17 00:13:23;;;;;;;5.47;3.20;;;17.10;58.90;;;;;;2330547;57;21592;-75
2022/06/17 00:15:50;;;;;;;6.87;4.22;;;17.10;59.00;;;;;;2329158;57;21125;-73
2022/06/17 00:18:19;;;;;;;6.97;4.35;;;17.00;59.20;;;;;;2329751;57;21162;-74
2022/06/17 00:20:48;;;;;;;9.18;3.62;;;17.00;59.40;;;;;;2329535;57;21133;-72
2022/06/17 00:23:18;;;;;;;7.00;4.40;;;17.00;59.70;;;;;;2329816;57;21113;-74
2022/06/17 00:25:47;;;;;;;9.70;4.05;;;16.90;60.00;;;;;;2329112;57;21596;-71
2022/06/17 00:28:18;;;;;;;6.45;4.30;;;16.90;60.40;;;;;;2572941;53;21113;-75
2022/06/17 00:30:47;;;;;;;12.43;5.55;;;16.80;60.40;;;;;;2330134;57;21539;-74
2022/06/17 00:33:16;;;;;;;6.25;4.18;;;16.80;60.50;;;;;;2330475;57;21537;-74
2022/06/17 00:35:46;;;;;;;5.62;4.10;;;16.70;60.50;;;;;;2329368;57;21145;-73
2022/06/17 00:38:17;;;;;;;6.40;4.87;;;16.70;60.70;;;;;;2329240;57;21672;-74
2022/06/17 00:40:46;;;;;;;6.25;4.62;;;16.60;60.80;;;;;;2330893;57;21050;-74
2022/06/17 00:43:24;;;;;;;5.80;4.30;;;16.60;61.90;;;;;;2329442;57;21703;-74
2022/06/17 00:45:58;;;;;;;7.10;4.05;;;16.50;61.10;;;;;;2329995;57;21106;-74
2022/06/17 00:48:30;;;;;;;5.15;4.40;;;16.40;61.00;;;;;;2573144;53;21059;-74
2022/06/17 00:51:09;;;;;;;8.10;4.20;;;16.40;60.90;;;;;;2330366;57;21564;-75
2022/06/17 00:53:43;;;;;;;5.53;3.92;;;16.40;61.00;;;;;;2573415;53;21584;-74
2022/06/17 00:56:18;;;;;;;8.18;5.00;;;16.50;61.30;;;;;;2330250;57;21094;-75
2022/06/17 00:58:58;;;;;;;6.15;4.68;;;16.40;61.50;;;;;;2573574;53;21059;-74
2022/06/17 01:01:27;;;;;;;6.03;4.68;;;16.30;61.60;;;;;;2572756;54;21130;-74
2022/06/17 01:03:58;;;;;;;8.70;4.62;;;16.30;61.70;;;;;;2328040;57;21098;-75
2022/06/17 01:06:30;;;;;;;7.43;5.10;;;16.20;62.20;;;;;;2329507;57;22187;-74
2022/06/17 01:11:47;;;;;;;9.82;5.05;;;16.10;62.40;;;;;;2330034;57;21066;-74
2022/06/17 01:14:19;;;;;;;7.22;4.22;;;16.00;62.40;;;;;;2329243;57;21126;-74
2022/06/17 01:16:48;;;;;;;8.32;5.05;;;15.90;62.90;;;;;;2572302;54;21115;-73
2022/06/17 01:19:27;;;;;;;8.13;4.10;;;15.90;63.00;;;;;;2570617;53;21062;-74
2022/06/17 01:22:06;;;;;;;5.65;4.20;;;15.80;63.20;;;;;;2327692;57;21145;-73
2022/06/17 01:24:34;;;;;;;7.57;4.40;;;15.80;63.40;;;;;;2330327;57;21159;-74
2022/06/17 01:27:02;;;;;;;5.37;4.12;;;15.80;63.60;;;;;;2329451;57;21688;-74
2022/06/17 01:29:30;;;;;;;5.68;4.10;;;15.80;63.60;;;;;;2330290;57;21133;-75
2022/06/17 01:31:58;;;;;;;5.40;4.35;;;15.70;63.60;;;;;;2327789;57;21134;-74
2022/06/17 01:34:26;;;;;;;7.62;4.72;;;15.70;63.40;;;;;;2329672;57;21568;-75
2022/06/17 01:36:55;;;;;;;9.25;5.20;;;15.70;63.20;;;;;;2329000;57;21556;-74
2022/06/17 01:39:23;;;;;;;10.70;5.97;;;15.70;63.30;;;;;;2328411;57;21046;-75
2022/06/17 01:41:51;;;;;;;8.52;5.72;;;15.70;63.50;;;;;;2329733;57;21074;-74
2022/06/17 01:44:22;;;;;;;9.48;6.75;;;15.70;64.10;;;;;;2330415;57;21053;-74
2022/06/17 01:46:54;;;;;;;15.85;7.03;;;15.70;64.50;;;;;;2329273;57;21062;-74
2022/06/17 01:49:26;;;;;;;8.88;6.68;;;15.70;64.70;;;;;;2329925;57;21556;-74
2022/06/17 01:51:58;;;;;;;12.77;7.20;;;15.70;64.70;;;;;;2329036;57;21405;-74
2022/06/17 01:54:32;;;;;;;11.00;6.37;;;15.70;64.60;;;;;;2330072;57;21173;-75
2022/06/17 01:57:02;;;;;;;9.20;6.18;;;15.60;64.50;;;;;;2329815;57;21031;-74
2022/06/17 01:59:35;;;;;;;12.85;6.45;;;15.70;64.50;;;;;;2330737;57;21086;-75
2022/06/17 02:02:05;;;;;;;12.90;7.93;;;15.70;64.50;;;;;;2329787;57;21125;-71
2022/06/17 02:04:35;;;;;;;12.30;8.02;;;15.70;64.40;;;;;;2329845;57;21039;-75
2022/06/17 02:07:12;;;;;;;10.88;7.57;;;15.70;64.50;;;;;;2329078;57;21035;-75
2022/06/17 02:09:40;;;;;;;11.00;7.97;;;15.70;64.60;;;;;;2329914;57;21142;-74
2022/06/17 02:12:09;;;;;;;13.48;8.45;;;15.70;64.60;;;;;;2329566;57;21361;-72
2022/06/17 02:14:37;;;;;;;14.00;8.10;;;15.70;64.60;;;;;;2330249;57;21136;-74
2022/06/17 02:17:05;;;;;;;12.00;7.45;;;15.60;64.70;;;;;;2330030;57;21129;-75
2022/06/17 02:19:36;;;;;;;13.35;8.23;;;15.70;64.80;;;;;;2328843;57;21827;-74
2022/06/17 02:22:09;;;;;;;11.88;7.22;;;15.60;64.90;;;;;;2329536;57;21106;-75
2022/06/17 02:24:38;;;;;;;8.57;5.90;;;15.70;65.20;;;;;;2573814;54;21066;-74
2022/06/17 02:27:10;;;;;;;10.18;7.57;;;15.70;65.40;;;;;;2329306;57;21643;-74
2022/06/17 02:29:40;;;;;;;14.15;8.45;;;15.60;65.30;;;;;;2330675;57;21568;-74
2022/06/17 02:32:10;;;;;;;13.75;7.57;;;15.70;65.30;;;;;;2330009;57;21039;-74
2022/06/17 02:34:46;;;;;;;9.57;7.50;;;15.70;65.30;;;;;;2330314;57;21097;-74
2022/06/17 02:37:17;;;;;;;14.38;7.68;;;15.60;65.50;;;;;;2327212;57;21050;-74
2022/06/17 02:39:47;;;;;;;9.80;6.82;;;15.60;65.40;;;;;;2329347;57;21070;-75
2022/06/17 02:42:18;;;;;;;12.25;7.60;;;15.60;65.40;;;;;;2328893;57;21446;-74
2022/06/17 02:44:49;;;;;;;11.82;7.30;;;15.60;65.20;;;;;;2329909;57;21137;-74
2022/06/17 02:47:16;;;;;;;10.95;7.62;;;15.60;64.90;;;;;;2329612;57;21066;-74
2022/06/17 02:49:45;;;;;;;10.95;7.25;;;15.60;64.90;;;;;;2329626;57;21530;-72
2022/06/17 02:52:16;;;;;;;12.32;7.10;;;15.60;64.90;;;;;;2329757;57;21686;-74
2022/06/17 02:54:48;;;;;;;10.52;7.25;;;15.50;64.80;;;;;;2326857;57;21081;-74
2022/06/17 02:57:20;;;;;;;13.70;7.93;;;15.50;64.90;;;;;;2328745;57;21125;-73
2022/06/17 02:59:52;;;;;;;11.82;7.87;;;15.50;64.80;;;;;;2329833;57;21093;-74
2022/06/17 03:02:23;;;;;;;13.15;7.93;;;15.50;64.80;;;;;;2330967;57;21058;-74
2022/06/17 03:04:52;;;;;;;11.05;7.60;;;15.40;64.80;;;;;;2330379;57;21533;-75
2022/06/17 03:07:23;;;;;;;9.82;7.65;;;15.40;64.80;;;;;;2330027;57;21070;-74
2022/06/17 03:09:50;;;;;;;8.80;6.93;;;15.40;64.90;;;;;;2330357;57;21098;-74
2022/06/17 03:12:21;;;;;;;14.80;7.32;;;15.30;64.90;;;;;;2328532;57;21089;-74
2022/06/17 03:14:55;;;;;;;8.88;6.60;;;15.30;65.10;;;;;;2330212;57;21592;-75
2022/06/17 03:17:24;;;;;;;13.48;7.45;;;15.30;65.20;;;;;;2330384;57;21070;-74
2022/06/17 03:19:54;;;;;;;8.57;6.35;;;15.20;65.10;;;;;;2328575;57;21608;-74
2022/06/17 03:22:23;;;;;;;7.35;5.93;;;15.20;65.30;;;;;;2330386;57;21121;-72
2022/06/17 03:24:57;;;;;;;9.88;6.07;;;15.10;65.30;;;;;;2330094;57;21039;-74
2022/06/17 03:27:32;;;;;;;13.43;7.12;;;15.10;65.50;;;;;;2330176;57;21046;-74
2022/06/17 03:30:02;;;;;;;8.15;5.95;;;15.10;65.50;;;;;;2329268;57;21030;-74
2022/06/17 03:32:36;;;;;;;12.02;6.82;;;15.10;65.60;;;;;;2330262;57;21596;-74
2022/06/17 03:35:05;;;;;;;8.20;6.30;;;15.10;65.70;;;;;;2329770;57;21517;-74
2022/06/17 03:37:40;;;;;;;8.55;6.12;;;15.10;65.90;;;;;;2329540;57;21509;-72
2022/06/17 03:40:15;;;;;;;10.27;5.55;;;15.00;66.10;;;;;;2329370;57;21053;-73
2022/06/17 03:42:53;;;;;;;8.38;5.80;;;15.00;66.60;;;;;;2572049;54;21117;-72
2022/06/17 03:45:26;;;;;;;9.60;6.60;;;15.00;66.50;;;;;;2330037;57;21134;-74
2022/06/17 03:47:59;;;;;;;9.13;6.40;;;15.00;66.60;;;;;;2330128;57;21551;-73
2022/06/17 03:50:31;;;;;;;9.43;5.75;;;15.00;66.80;;;;;;2343048;52;70524;-79
2022/06/17 03:53:03;;;;;;;7.93;6.03;;;15.00;67.00;;;;;;2607641;53;21027;-81
2022/06/17 03:55:32;;;;;;;8.23;5.55;;;15.00;67.20;;;;;;2357027;57;21702;-80
2022/06/17 03:58:02;;;;;;;9.80;5.60;;;15.00;67.40;;;;;;2608316;53;21055;-80
2022/06/17 04:00:36;;;;;;;6.65;5.62;;;15.00;67.60;;;;;;2591359;53;21078;-80
2022/06/17 04:03:09;;;;;;;7.12;5.75;;;15.00;67.70;;;;;;2330756;57;21618;-80
2022/06/17 04:05:36;;;;;;;8.48;6.00;;;15.10;67.50;;;;;;2330244;57;21705;-80
2022/06/17 04:08:04;;;;;;;10.02;6.20;;;15.10;67.30;;;;;;2574979;54;21110;-80
2022/06/17 04:10:32;;;;;;;9.57;6.15;;;15.10;67.10;;;;;;2573218;53;21054;-81
2022/06/17 04:13:01;;;;;;;12.23;6.30;;;15.20;67.50;;;;;;2330821;57;21129;-80
2022/06/17 04:15:39;;;;;;;9.93;6.62;;;15.20;67.60;;;;;;2331319;57;21149;-80
2022/06/17 04:18:08;;;;;;;9.35;7.10;;;15.20;68.10;;;;;;2331138;57;21101;-81
2022/06/17 04:20:41;;;;;;;11.63;8.05;;;15.20;68.10;;;;;;2331449;57;21049;-81
2022/06/17 04:23:13;;;;;;;15.18;7.85;;;15.30;68.70;;;;;;2575329;54;21046;-79
2022/06/17 04:25:44;;;;;;;13.13;7.63;;;15.30;68.40;;;;;;2575887;54;21050;-80
2022/06/17 04:28:14;;;;;;;12.23;8.00;;;15.30;68.20;;;;;;2575611;54;21253;-81
2022/06/17 04:30:44;;;;;;;11.38;8.00;;;15.40;68.20;;;;;;2575723;53;21026;-81
2022/06/17 04:33:21;;;;;;;14.02;8.98;;;15.40;68.10;;;;;;2332649;57;21634;-82
2022/06/17 04:35:52;;;;;;;13.00;8.30;;;15.50;68.10;;;;;;2576087;54;21034;-81
2022/06/17 04:38:20;;;;;;;10.95;8.32;;;15.50;68.00;;;;;;2332561;57;21737;-81
2022/06/17 04:40:54;;;;;;;13.85;8.23;;;15.50;68.10;;;;;;2576063;53;21561;-80
2022/06/17 04:43:28;;;;;;;11.15;7.50;;;15.60;68.10;;;;;;2575642;54;21121;-81
2022/06/17 04:45:59;;;;;;;12.88;7.85;;;15.60;68.60;;;;;;2575461;54;21543;-81
2022/06/17 04:48:26;;;;;;;10.95;8.02;;;15.70;68.60;;;;;;2332607;57;21535;-80
2022/06/17 04:50:54;;;;;;;10.30;7.55;;;15.70;68.70;;;;;;2328191;57;21102;-80
2022/06/17 04:53:22;;;;;;;10.90;7.28;;;15.70;68.80;;;;;;2323263;58;21535;-80
2022/06/17 04:55:50;;;;;;;13.40;8.25;;;15.80;69.00;;;;;;2563811;54;21042;-80
2022/06/17 04:58:19;;;;;;;14.40;8.93;;;15.80;69.00;;;;;;2322225;58;21047;-80
2022/06/17 05:00:49;;;;;;;14.18;9.18;;;15.90;68.80;;;;;;2322859;58;21690;-80
2022/06/17 05:03:17;;;;;;;14.82;10.80;;;15.90;69.50;;;;;;2323203;58;21626;-81
2022/06/17 05:05:47;;;;;;;19.67;12.02;;;16.00;68.80;;;;;;2323249;58;21078;-82
2022/06/17 05:08:20;;;;;;;13.10;9.70;;;16.00;69.10;;;;;;2564545;54;21114;-80
2022/06/17 05:10:53;;;;;;;16.33;11.38;;;16.00;69.00;;;;;;2565399;53;21067;-82
2022/06/17 05:13:24;;;;;;;15.18;11.10;;;16.10;69.20;;;;;;2564546;54;21039;-81
2022/06/17 05:15:52;;;;;;;15.60;10.82;;;16.10;69.40;;;;;;2322928;58;21097;-81
2022/06/17 05:18:21;;;;;;;17.70;10.45;;;16.10;69.40;;;;;;2323891;58;21078;-80
2022/06/17 05:20:49;;;;;;;16.98;11.35;;;16.20;69.60;;;;;;2564787;54;21657;-81
2022/06/17 05:23:17;;;;;;;15.25;10.80;;;16.20;69.90;;;;;;2323327;58;21090;-80
2022/06/17 05:25:47;;;;;;;17.27;11.80;;;16.30;70.20;;;;;;2322936;58;21083;-81
2022/06/17 05:28:17;;;;;;;16.80;12.57;;;16.30;70.60;;;;;;2323755;58;21058;-81
2022/06/17 05:30:51;;;;;;;18.87;12.00;;;16.30;70.60;;;;;;2563178;53;21535;-79
2022/06/17 05:33:20;;;;;;;16.80;11.25;;;16.40;70.70;;;;;;2323550;58;21122;-81
2022/06/17 05:35:48;;;;;;;18.02;11.52;;;16.40;70.70;;;;;;2323516;58;21090;-81
2022/06/17 05:38:16;;;;;;;17.08;11.63;;;16.40;70.80;;;;;;2324112;58;21539;-82
2022/06/17 05:40:43;;;;;;;12.98;10.13;;;16.50;71.60;;;;;;2565389;54;21162;-82
2022/06/17 05:43:12;;;;;;;14.23;10.65;;;16.50;71.40;;;;;;2324111;58;21055;-82
2022/06/17 05:45:39;;;;;;;15.27;11.18;;;16.60;70.50;;;;;;2565583;54;21047;-82
2022/06/17 05:48:08;;;;;;;15.82;10.43;;;16.60;70.10;;;;;;2564480;54;21039;-81
2022/06/17 05:50:36;;;;;;;16.17;11.65;;;16.70;69.90;;;;;;2323703;58;21114;-82
2022/06/17 05:53:05;;;;;;;16.08;11.02;;;16.80;70.30;;;;;;2566043;54;21056;-82
2022/06/17 05:55:34;;;;;;;23.75;11.77;;;16.70;70.60;;;;;;2565818;54;21034;-82
2022/06/17 05:58:02;;;;;;;14.60;10.82;;;16.80;70.90;;;;;;2565781;54;21122;-82
2022/06/17 06:00:31;;;;;;;18.15;11.85;;;16.80;70.90;;;;;;2566028;53;21570;-83
2022/06/17 06:03:01;;;;;;;16.58;11.10;;;16.90;71.00;;;;;;2323913;58;21063;-83
2022/06/17 06:05:31;;;;;;;15.38;10.40;;;16.90;70.80;;;;;;2322745;58;21113;-83
2022/06/17 06:07:59;;;;;;;13.48;9.52;;;17.00;71.00;;;;;;2565926;54;21114;-83
2022/06/17 06:10:27;;;;;;;14.70;8.90;;;17.10;70.80;;;;;;2323929;58;21575;-82
2022/06/17 06:12:57;;;;;;;17.87;9.73;;;17.10;70.40;;;;;;2565984;54;21622;-82
2022/06/17 06:15:30;;;;;;;16.00;10.45;;;17.20;70.20;;;;;;2565833;54;21066;-81
2022/06/17 06:17:58;;;;;;;16.42;9.80;;;17.20;69.80;;;;;;2566493;54;21166;-83
2022/06/17 06:20:26;;;;;;;17.45;9.85;;;17.20;69.70;;;;;;2323046;58;21031;-83
2022/06/17 06:22:53;;;;;;;14.40;10.70;;;17.30;69.80;;;;;;2323773;58;21066;-83
2022/06/17 06:25:21;;;;;;;15.48;8.95;;;17.30;69.80;;;;;;2565268;54;21070;-82
2022/06/17 06:27:49;;;;;;;12.37;9.52;;;17.40;69.00;;;;;;2565497;54;21126;-82
2022/06/17 06:30:20;;;;;;;13.07;9.63;;;17.40;69.20;;;;;;2324332;58;21161;-82
2022/06/17 06:32:53;;;;;;;13.73;8.73;;;17.40;69.40;;;;;;2324242;58;21129;-81
2022/06/17 06:35:23;;;;;;;12.32;8.65;;;17.50;69.50;;;;;;2563920;54;21611;-82
2022/06/17 06:37:51;;;;;;;16.58;10.65;;;17.50;69.30;;;;;;2565457;54;21019;-82
2022/06/17 06:40:19;;;;;;;11.40;9.27;;;17.60;69.00;;;;;;2323615;58;21094;-83
2022/06/17 06:42:49;;;;;;;12.40;7.78;;;17.60;68.70;;;;;;2565819;54;21038;-83
2022/06/17 06:45:20;;;;;;;10.73;8.27;;;17.70;67.90;;;;;;2323697;58;21070;-82
2022/06/17 06:47:48;;;;;;;12.95;8.02;;;17.70;67.50;;;;;;2565953;54;21121;-84
2022/06/17 06:50:19;;;;;;;10.27;7.90;;;17.80;66.70;;;;;;2565908;54;21042;-83
2022/06/17 06:52:47;;;;;;;12.68;9.27;;;17.80;66.00;;;;;;2565668;53;21050;-84
2022/06/17 06:55:15;;;;;;;10.82;7.72;;;17.90;65.90;;;;;;2565198;54;21038;-82
2022/06/17 06:57:49;;;;;;;17.37;8.85;;;17.90;65.10;;;;;;2565913;54;21463;-83
2022/06/17 07:00:20;;;;;;;15.68;8.55;;;18.00;65.50;;;;;;2565605;53;21046;-83
2022/06/17 07:02:48;;;;;;;12.02;8.25;;;18.00;65.50;;;;;;2566093;54;21054;-82
2022/06/17 07:05:15;;;;;;;12.18;7.60;;;18.10;65.40;;;;;;2324007;58;21075;-83
2022/06/17 07:07:44;;;;;;;15.07;7.57;;;18.10;65.30;;;;;;2323993;58;21094;-83
2022/06/17 07:10:15;;;;;;;10.48;5.72;;;18.10;64.90;;;;;;2565882;54;21113;-83
2022/06/17 07:12:42;;;;;;;7.05;5.10;;;18.20;63.80;;;;;;2324324;58;21054;-83
2022/06/17 07:15:12;;;;;;;11.40;6.22;;;18.20;63.40;;;;;;2324105;58;21602;-82
2022/06/17 07:17:40;;;;;;;10.88;6.20;;;18.30;63.80;;;;;;2323648;58;21045;-83
2022/06/17 07:20:11;;;;;;;11.73;6.40;;;18.30;63.80;;;;;;2323914;58;21169;-83
2022/06/17 07:22:38;;;;;;;9.40;5.80;;;18.30;63.50;;;;;;2566147;54;21091;-83
2022/06/17 07:25:07;;;;;;;6.93;4.53;;;18.40;62.90;;;;;;2565918;54;21058;-83
2022/06/17 07:27:34;;;;;;;10.27;4.93;;;18.40;62.10;;;;;;2565867;54;21054;-83
2022/06/17 07:30:02;;;;;;;9.77;5.12;;;18.50;61.70;;;;;;2324290;58;21149;-83
2022/06/17 07:32:29;;;;;;;7.35;4.35;;;18.60;61.30;;;;;;2323970;58;21082;-82
2022/06/17 07:34:57;;;;;;;6.12;4.22;;;18.60;61.50;;;;;;2565928;54;21106;-83
2022/06/17 07:40:11;;;;;;;5.65;3.70;;;18.70;60.90;;;;;;2324276;58;21011;-82
2022/06/17 07:42:39;;;;;;;8.70;3.70;;;18.80;60.60;;;;;;2566301;54;21031;-82
2022/06/17 07:45:11;;;;;;;8.50;3.65;;;18.80;59.80;;;;;;2322036;58;21177;-82
2022/06/17 07:47:40;;;;;;;5.47;3.12;;;18.90;58.80;;;;;;2563392;54;21571;-83
2022/06/17 07:50:11;;;;;;;6.53;3.53;;;18.90;58.00;;;;;;2563109;53;21147;-83
2022/06/17 07:52:39;;;;;;;5.43;3.05;;;18.90;57.30;;;;;;2563798;54;21066;-83
2022/06/17 07:55:08;;;;;;;3.95;3.15;;;19.00;57.40;;;;;;2562615;54;21038;-82
2022/06/17 07:57:36;;;;;;;8.95;3.47;;;19.00;56.60;;;;;;2562962;54;21137;-82
2022/06/17 08:00:07;;;;;;;9.63;2.78;;;19.10;56.10;;;;;;2563313;53;21113;-81
2022/06/17 08:02:35;;;;;;;4.70;2.92;;;19.10;56.40;;;;;;2562802;54;21086;-81
2022/06/17 08:05:03;;;;;;;7.25;2.83;;;19.20;56.70;;;;;;2562581;54;21819;-82
2022/06/17 08:07:31;;;;;;;7.05;3.17;;;19.30;56.60;;;;;;2563275;54;21135;-82
2022/06/17 08:09:58;;;;;;;6.47;2.70;;;19.30;55.90;;;;;;2562807;54;21058;-82
2022/06/17 08:12:26;;;;;;;5.25;3.58;;;19.30;56.00;;;;;;2562624;54;21058;-82
2022/06/17 08:14:56;;;;;;;5.05;3.05;;;19.40;55.90;;;;;;2563427;54;21034;-82
2022/06/17 08:17:24;;;;;;;4.12;2.70;;;19.40;55.40;;;;;;2563201;54;21062;-83
2022/06/17 08:19:56;;;;;;;4.93;2.60;;;19.50;54.80;;;;;;2562416;53;21051;-81
2022/06/17 08:22:25;;;;;;;6.28;2.72;;;19.50;54.60;;;;;;2563295;54;21118;-83
2022/06/17 08:24:55;;;;;;;4.65;2.80;;;19.60;54.40;;;;;;2563108;54;21058;-82
2022/06/17 08:27:23;;;;;;;4.15;2.30;;;19.70;54.00;;;;;;2561535;54;21070;-82
2022/06/17 08:29:52;;;;;;;4.93;2.75;;;19.70;54.20;;;;;;2562758;53;21117;-83
2022/06/17 08:35:09;;;;;;;5.15;2.55;;;19.90;53.30;;;;;;2321547;58;21122;-83
2022/06/17 08:37:38;;;;;;;4.45;2.58;;;20.00;53.60;;;;;;2562717;54;21059;-82
2022/06/17 08:40:21;;;;;;;4.30;2.85;;;20.00;53.60;;;;;;2562696;53;21184;-82
2022/06/17 08:43:05;;;;;;;6.78;3.03;;;20.00;53.30;;;;;;2562991;54;21629;-78
2022/06/17 08:45:40;;;;;;;3.30;2.03;;;20.20;53.00;;;;;;2561415;54;21145;-82
2022/06/17 08:48:24;;;;;;;4.85;2.37;;;20.20;52.60;;;;;;2562882;54;21133;-80
2022/06/17 08:51:06;;;;;;;5.87;2.30;;;20.30;52.20;;;;;;2561672;54;21134;-80
2022/06/17 08:53:54;;;;;;;5.45;2.40;;;20.40;52.20;;;;;;2561225;54;21074;-80
2022/06/17 08:56:33;;;;;;;5.20;2.83;;;20.60;52.70;;;;;;2562691;54;21038;-80
2022/06/17 08:59:14;;;;;;;4.15;2.40;;;20.70;53.10;;;;;;2561472;54;21074;-80
2022/06/17 09:01:47;;;;;;;5.50;2.40;;;20.90;52.50;;;;;;2561352;53;21863;-80
2022/06/17 09:04:28;;;;;;;3.22;1.80;;;21.00;52.40;;;;;;2563068;54;21856;-80
2022/06/17 09:07:10;;;;;;;4.72;2.05;;;21.10;51.10;;;;;;2562519;54;21034;-80
2022/06/17 09:12:30;;;;;;;5.32;2.80;;;21.30;51.40;;;;;;2355796;57;22074;-74
2022/06/17 09:15:06;;;;;;;3.05;2.45;;;21.60;50.00;;;;;;2347524;57;21034;-74
2022/06/17 09:17:54;;;;;;;4.20;1.95;;;21.70;49.60;;;;;;2347465;57;21596;-73
2022/06/17 09:20:29;;;;;;;7.65;1.90;;;21.80;50.10;;;;;;2374175;56;21517;-73
2022/06/17 09:23:01;;;;;;;5.55;2.12;;;21.90;50.00;;;;;;2375349;56;21834;-74
2022/06/17 09:25:36;;;;;;;4.20;1.90;;;22.00;49.10;;;;;;2375154;56;21643;-74
2022/06/17 09:28:09;;;;;;;3.85;1.58;;;22.10;48.40;;;;;;2372905;56;21051;-73
2022/06/17 09:30:43;;;;;;;2.47;1.60;;;22.20;48.50;;;;;;2374326;56;21054;-74
2022/06/17 09:33:18;;;;;;;4.43;2.03;;;22.30;47.90;;;;;;2374658;56;21660;-73
2022/06/17 09:35:50;;;;;;;4.70;2.05;;;22.30;47.70;;;;;;2374698;56;21047;-73
2022/06/17 09:38:23;;;;;;;2.13;1.70;;;22.40;47.30;;;;;;2375486;56;21528;-73
2022/06/17 09:40:55;;;;;;;3.10;1.83;;;22.50;47.60;;;;;;2375203;56;21023;-73
2022/06/17 09:43:28;;;;;;;3.65;2.20;;;22.50;47.80;;;;;;2375191;56;21150;-74
2022/06/17 09:46:03;;;;;;;8.70;3.25;;;22.70;48.20;;;;;;2375195;56;21039;-74
2022/06/17 09:48:40;;;;;;;3.50;2.10;;;22.70;47.40;;;;;;2627802;52;21521;-73
2022/06/17 09:51:13;;;;;;;4.20;2.42;;;22.80;46.80;;;;;;2307664;55;21159;-76
2022/06/17 09:53:45;;;;;;;4.05;2.50;;;22.90;46.70;;;;;;2248096;56;21120;-75
2022/06/17 09:56:15;;;;;;;3.80;1.83;;;22.90;46.70;;;;;;2242229;60;21095;-75
2022/06/17 09:58:49;;;;;;;3.30;2.15;;;23.00;46.70;;;;;;2242059;60;21060;-78
2022/06/17 10:01:17;;;;;;;3.22;1.85;;;23.00;45.80;;;;;;2240594;60;21080;-78
2022/06/17 10:03:44;;;;;;;6.35;2.60;;;23.10;46.20;;;;;;2242005;60;21092;-78
2022/06/17 10:06:30;;;;;;;4.32;1.87;;;23.20;46.10;;;;;;2241506;60;21116;-78
2022/06/17 10:09:11;;;;;;;2.40;1.75;;;23.20;46.90;;;;;;2279044;56;21139;-78
2022/06/17 10:11:47;;;;;;;4.10;1.87;;;23.30;47.10;;;;;;2332760;56;21215;-78
2022/06/17 10:14:24;;;;;;;5.10;2.12;;;23.40;46.70;;;;;;2260191;56;21105;-78
2022/06/17 10:19:58;;;;;;;5.10;2.25;;;23.50;45.90;;;;;;2241228;56;21621;-76
2022/06/17 10:22:39;;;;;;;4.12;2.28;;;23.50;45.90;;;;;;2240091;60;21080;-78
2022/06/17 10:25:20;;;;;;;4.35;2.15;;;23.60;45.70;;;;;;2264574;56;21131;-78
2022/06/17 10:28:00;;;;;;;5.00;2.28;;;23.70;45.80;;;;;;2269931;56;21092;-78
2022/06/17 10:30:40;;;;;;;5.10;2.72;;;23.70;45.50;;;;;;2256033;56;21151;-78
2022/06/17 10:33:12;;;;;;;5.43;2.72;;;23.80;45.50;;;;;;2240882;60;21072;-78
2022/06/17 10:35:41;;;;;;;4.45;2.28;;;23.90;45.40;;;;;;2240592;60;21574;-78
2022/06/17 10:38:13;;;;;;;4.10;2.47;;;23.90;45.60;;;;;;2240914;60;21124;-78
2022/06/17 10:40:42;;;;;;;2.58;1.92;;;24.00;45.70;;;;;;2241073;60;21087;-78
2022/06/17 10:43:13;;;;;;;5.28;2.00;;;24.00;46.20;;;;;;2240694;60;21120;-78
2022/06/17 10:45:40;;;;;;;5.97;2.65;;;24.10;46.20;;;;;;2239515;60;21124;-78
2022/06/17 10:48:17;;;;;;;4.57;2.37;;;24.20;45.90;;;;;;2241471;57;21136;-78
2022/06/17 10:50:44;;;;;;;2.55;2.00;;;24.20;46.20;;;;;;2243930;56;21108;-78
2022/06/17 10:53:18;;;;;;;4.05;2.40;;;24.30;46.20;;;;;;2270163;56;21165;-78
2022/06/17 10:55:49;;;;;;;7.22;2.97;;;24.30;45.70;;;;;;2264758;56;21199;-78
2022/06/17 10:58:20;;;;;;;5.53;2.80;;;24.40;45.10;;;;;;2279962;56;21439;-78
2022/06/17 11:03:45;;;;;;;8.95;3.20;;;24.50;44.90;;;;;;2355858;57;22544;-77
2022/06/17 11:06:17;;;;;;;6.82;2.78;;;24.60;44.60;;;;;;2346554;57;21053;-77
2022/06/17 11:08:56;;;;;;;5.30;2.60;;;24.60;44.90;;;;;;2524110;53;21125;-78
2022/06/17 11:14:31;;;;;;;4.60;3.00;;;24.70;44.80;;;;;;2375201;52;21512;-76
2022/06/17 11:16:59;;;;;;;3.95;2.55;;;24.80;44.40;;;;;;2415447;52;21035;-75
2022/06/17 11:19:28;;;;;;;8.57;2.92;;;24.80;44.70;;;;;;2375161;56;21067;-75
2022/06/17 11:21:57;;;;;;;5.45;3.10;;;24.80;44.90;;;;;;2375092;55;21142;-76
2022/06/17 11:24:28;;;;;;;3.33;2.70;;;24.90;45.00;;;;;;2422732;52;21691;-75
2022/06/17 11:30:27;;;;;;;6.07;2.60;;;25.00;45.00;;;;;;2378579;56;22163;-77
2022/06/17 11:32:56;;;;;;;5.55;3.15;;;25.00;45.00;;;;;;2440658;52;21086;-78
2022/06/17 11:35:38;;;;;;;6.80;3.22;;;25.10;44.40;;;;;;2373202;56;21129;-76
2022/06/17 11:38:12;;;;;;;4.65;3.03;;;25.10;44.20;;;;;;2372620;56;21058;-76
2022/06/17 11:40:50;;;;;;;8.35;3.50;;;25.20;43.90;;;;;;2397362;52;21090;-78
2022/06/17 11:43:33;;;;;;;5.25;3.40;;;25.20;44.00;;;;;;2401432;52;21030;-78
2022/06/17 11:46:08;;;;;;;4.45;2.95;;;25.30;44.30;;;;;;2428183;52;21110;-78
2022/06/17 11:48:41;;;;;;;7.93;4.00;;;25.30;45.00;;;;;;2372924;56;21124;-78
2022/06/17 11:53:47;;;;;;;6.95;3.40;;;25.30;43.50;;;;;;2333999;57;28276;-76
2022/06/17 11:56:30;;;;;;;4.90;3.10;;;25.50;42.60;;;;;;2345619;57;21057;-76
2022/06/17 11:59:07;;;;;;;3.80;2.78;;;25.50;43.50;;;;;;2356403;56;21537;-76
2022/06/17 12:01:36;;;;;;;6.22;2.97;;;25.50;43.40;;;;;;2372554;53;21035;-77
2022/06/17 12:04:04;;;;;;;4.85;3.17;;;25.60;43.10;;;;;;2371682;56;21034;-78
2022/06/17 12:06:45;;;;;;;4.10;2.92;;;25.50;42.80;;;;;;2372720;56;21631;-77
2022/06/17 12:09:22;;;;;;;6.45;3.00;;;25.50;42.80;;;;;;2374210;56;21107;-77
2022/06/17 12:11:53;;;;;;;6.95;3.35;;;25.40;42.60;;;;;;2373730;56;21124;-78
2022/06/17 12:14:26;;;;;;;7.10;3.08;;;25.40;42.60;;;;;;2375640;52;21047;-77
2022/06/17 12:16:56;;;;;;;5.95;3.40;;;25.30;42.10;;;;;;2375044;56;21030;-77
2022/06/17 12:19:23;;;;;;;7.32;3.42;;;25.30;42.10;;;;;;2427255;52;21106;-77
2022/06/17 12:21:57;;;;;;;5.37;3.08;;;25.30;41.90;;;;;;2374917;56;21042;-78
2022/06/17 12:24:33;;;;;;;4.97;2.37;;;25.30;42.10;;;;;;2422218;52;21054;-78
2022/06/17 12:27:10;;;;;;;7.40;3.33;;;25.30;42.30;;;;;;2386742;52;21145;-77
2022/06/17 12:29:53;;;;;;;4.97;2.78;;;25.30;42.80;;;;;;2375090;56;21048;-77
2022/06/17 12:32:28;;;;;;;6.05;2.87;;;25.20;42.90;;;;;;2375466;56;21133;-77
2022/06/17 12:35:03;;;;;;;3.92;2.80;;;25.20;42.10;;;;;;2415803;52;21047;-77
2022/06/17 12:37:42;;;;;;;5.90;3.40;;;25.20;42.40;;;;;;2399406;52;21039;-78
2022/06/17 12:40:16;;;;;;;7.28;3.10;;;25.20;42.10;;;;;;2431932;52;21117;-77
2022/06/17 12:42:51;;;;;;;4.40;2.58;;;25.20;43.20;;;;;;2375493;56;21015;-78
2022/06/17 12:45:26;;;;;;;4.75;2.58;;;25.30;43.60;;;;;;2373661;56;21051;-77
2022/06/17 12:48:05;;;;;;;3.72;2.40;;;25.30;44.40;;;;;;2375372;56;21042;-77
2022/06/17 12:53:34;;;;;;;5.97;3.05;;;25.30;43.10;;;;;;2375056;52;21023;-75
2022/06/17 12:56:21;;;;;;;7.03;2.75;;;25.30;43.80;;;;;;2420128;52;21055;-75
2022/06/17 12:59:10;;;;;;;4.37;2.47;;;25.40;43.50;;;;;;2375435;56;21506;-75
2022/06/17 13:01:42;;;;;;;4.70;2.45;;;25.40;44.50;;;;;;2433250;52;21039;-75
2022/06/17 13:04:29;;;;;;;4.47;2.85;;;25.40;43.10;;;;;;2373111;56;21055;-75
2022/06/17 13:07:06;;;;;;;5.95;2.50;;;25.50;42.80;;;;;;2451909;52;21570;-76
2022/06/17 13:09:42;;;;;;;8.25;2.97;;;25.50;42.70;;;;;;2373903;56;21506;-75
2022/06/17 13:12:16;;;;;;;3.75;2.53;;;25.50;42.60;;;;;;2374304;56;22214;-76
2022/06/17 13:14:51;;;;;;;4.37;2.75;;;25.50;42.70;;;;;;2374294;56;21039;-75
2022/06/17 13:17:26;;;;;;;4.15;2.40;;;25.60;42.10;;;;;;2374098;56;21039;-76
2022/06/17 13:19:59;;;;;;;3.53;2.55;;;25.70;42.40;;;;;;2374644;56;21573;-79
2022/06/17 13:22:33;;;;;;;5.62;2.40;;;25.90;43.20;;;;;;2374233;56;21613;-76
2022/06/17 13:25:11;;;;;;;3.62;2.25;;;25.90;43.10;;;;;;2427074;52;21039;-76
2022/06/17 13:27:45;;;;;;;3.37;2.30;;;26.00;43.10;;;;;;2373845;56;21505;-76
2022/06/17 13:30:18;;;;;;;4.72;2.70;;;26.10;43.20;;;;;;2406219;52;21095;-76
2022/06/17 13:32:50;;;;;;;4.87;2.97;;;26.30;43.00;;;;;;2374292;56;21051;-76
2022/06/17 13:35:26;;;;;;;4.57;2.60;;;26.40;41.30;;;;;;2373947;56;21592;-76